createdAt,value
2022-08-10T00:00:35.064Z,20.60
2022-08-10T00:03:02.700Z,20.50
2022-08-10T00:05:43.675Z,20.30
2022-08-10T00:08:23.700Z,20.40
2022-08-10T00:10:55.426Z,20.10
2022-08-10T00:13:23.994Z,20.00
2022-08-10T00:15:53.918Z,20.20
2022-08-10T00:18:34.643Z,20.30
2022-08-10T00:21:07.539Z,20.40
2022-08-10T00:23:35.499Z,20.60
2022-08-10T00:26:02.564Z,20.70
2022-08-10T00:28:29.349Z,20.60
2022-08-10T00:30:56.544Z,20.40
2022-08-10T00:33:23.302Z,20.10
2022-08-10T00:35:50.579Z,20.20
2022-08-10T00:38:17.622Z,20.00
2022-08-10T00:40:44.329Z,19.90
2022-08-10T00:43:11.019Z,20.10
2022-08-10T00:45:37.904Z,20.10
2022-08-10T00:48:04.817Z,19.90
2022-08-10T00:50:31.804Z,19.80
2022-08-10T00:52:59.020Z,20.00
2022-08-10T00:55:26.208Z,20.10
2022-08-10T00:57:55.439Z,19.90
2022-08-10T01:00:25.991Z,20.00
2022-08-10T01:02:53.163Z,20.20
2022-08-10T01:05:21.531Z,19.60
2022-08-10T01:08:06.323Z,19.80
2022-08-10T01:10:53.515Z,19.60
2022-08-10T01:13:47.952Z,20.10
2022-08-10T01:16:29.736Z,20.00
2022-08-10T01:19:22.603Z,20.00
2022-08-10T01:22:12.732Z,19.70
2022-08-10T01:24:53.911Z,19.70
2022-08-10T01:27:42.736Z,19.60
2022-08-10T01:30:14.232Z,19.40
2022-08-10T01:32:40.875Z,19.50
2022-08-10T01:35:30.877Z,19.40
2022-08-10T01:38:25.235Z,19.60
2022-08-10T01:41:00.010Z,19.60
2022-08-10T01:43:28.201Z,19.80
2022-08-10T01:45:59.511Z,19.40
2022-08-10T01:48:31.882Z,19.30
2022-08-10T01:51:02.440Z,19.00
2022-08-10T01:53:55.551Z,18.90
2022-08-10T01:56:25.154Z,19.10
2022-08-10T01:59:05.936Z,19.10
2022-08-10T02:01:39.676Z,19.20
2022-08-10T02:04:09.766Z,19.10
2022-08-10T02:06:43.297Z,19.00
2022-08-10T02:09:14.040Z,19.00
2022-08-10T02:12:06.546Z,19.10
2022-08-10T02:14:34.263Z,19.00
2022-08-10T02:17:04.710Z,19.20
2022-08-10T02:19:34.604Z,19.20
2022-08-10T02:58:43.939Z,18.80
2022-08-10T03:01:18.560Z,19.10
2022-08-10T03:03:52.832Z,19.20
2022-08-10T03:06:25.314Z,19.30
2022-08-10T03:08:52.946Z,18.90
2022-08-10T03:12:35.141Z,18.70
2022-08-10T03:14:15.027Z,18.60
2022-08-10T03:16:42.781Z,18.30
2022-08-10T03:20:34.754Z,18.40
2022-08-10T03:21:59.267Z,18.40
2022-08-10T03:24:32.691Z,18.00
2022-08-10T03:27:00.867Z,18.10
2022-08-10T03:29:29.952Z,18.10
2022-08-10T03:32:17.994Z,18.30
2022-08-10T03:34:45.010Z,18.80
2022-08-10T03:37:11.743Z,18.80
2022-08-10T03:39:38.545Z,18.90
2022-08-10T03:42:07.947Z,18.70
2022-08-10T03:44:35.834Z,18.80
2022-08-10T03:47:15.938Z,18.70
2022-08-10T03:49:46.611Z,18.20
2022-08-10T03:52:15.251Z,18.20
2022-08-10T03:54:42.853Z,18.50
2022-08-10T03:57:10.678Z,18.60
2022-08-10T03:59:38.209Z,18.30
2022-08-10T04:02:47.142Z,18.30
2022-08-10T04:04:53.184Z,18.00
2022-08-10T04:07:21.506Z,18.20
2022-08-10T04:09:54.304Z,18.30
2022-08-10T04:12:23.131Z,18.20
2022-08-10T04:14:52.985Z,17.90
2022-08-10T04:18:05.115Z,17.60
2022-08-10T04:20:34.193Z,17.80
2022-08-10T04:23:06.387Z,18.10
2022-08-10T04:25:33.818Z,18.30
2022-08-10T04:28:01.111Z,18.50
2022-08-10T04:30:31.946Z,18.30
2022-08-10T04:33:01.200Z,18.00
2022-08-10T04:35:30.049Z,17.90
2022-08-10T04:37:58.182Z,17.70
2022-08-10T04:40:30.232Z,18.20
2022-08-10T04:43:11.264Z,18.50
2022-08-10T04:45:47.640Z,18.30
2022-08-10T04:48:40.839Z,17.80
2022-08-10T04:51:05.857Z,18.00
2022-08-10T04:53:32.621Z,18.00
2022-08-10T04:55:59.305Z,17.80
2022-08-10T04:58:26.018Z,17.70
2022-08-10T05:00:52.865Z,17.80
2022-08-10T05:03:19.702Z,17.80
2022-08-10T05:05:46.558Z,18.00
2022-08-10T05:08:15.470Z,17.90
2022-08-10T05:10:42.208Z,18.00
2022-08-10T05:13:08.932Z,17.70
2022-08-10T05:15:35.851Z,17.50
2022-08-10T05:18:08.746Z,17.70
2022-08-10T05:20:37.608Z,17.70
2022-08-10T05:23:04.702Z,17.80
2022-08-10T05:25:32.965Z,18.10
2022-08-10T05:28:06.469Z,18.00
2022-08-10T05:30:34.094Z,17.80
2022-08-10T05:33:05.131Z,18.40
2022-08-10T05:35:56.940Z,18.20
2022-08-10T05:38:25.531Z,18.30
2022-08-10T05:40:52.903Z,18.20
2022-08-10T05:43:21.654Z,18.30
2022-08-10T05:46:17.341Z,18.20
2022-08-10T05:48:58.001Z,18.60
2022-08-10T05:51:26.349Z,18.90
2022-08-10T05:54:02.804Z,18.70
2022-08-10T05:56:55.715Z,18.90
2022-08-10T06:00:31.185Z,18.90
2022-08-10T06:02:35.393Z,19.30
2022-08-10T06:05:11.210Z,18.90
2022-08-10T06:07:42.507Z,18.60
2022-08-10T06:10:13.872Z,19.20
2022-08-10T06:13:08.042Z,19.50
2022-08-10T06:15:56.055Z,19.80
2022-08-10T06:18:24.352Z,19.90
2022-08-10T06:20:52.331Z,19.90
2022-08-10T06:23:19.625Z,19.80
2022-08-10T06:26:09.708Z,20.10
2022-08-10T06:28:39.342Z,20.20
2022-08-10T06:31:07.660Z,20.20
2022-08-10T06:33:37.318Z,20.20
2022-08-10T06:36:07.508Z,19.90
2022-08-10T06:38:36.244Z,20.10
2022-08-10T06:41:08.419Z,20.20
2022-08-10T06:43:36.422Z,20.60
2022-08-10T06:46:16.323Z,20.40
2022-08-10T06:48:57.168Z,20.60
2022-08-10T06:51:31.903Z,20.60
2022-08-10T06:54:03.384Z,20.70
2022-08-10T06:56:36.021Z,20.80
2022-08-10T06:59:32.825Z,20.80
2022-08-10T07:02:13.396Z,20.80
2022-08-10T07:04:55.866Z,20.90
2022-08-10T07:07:29.599Z,20.70
2022-08-10T07:09:58.633Z,20.80
2022-08-10T07:12:26.190Z,21.00
2022-08-10T07:14:55.041Z,21.10
2022-08-10T07:17:24.802Z,21.20
2022-08-10T07:20:00.672Z,20.90
2022-08-10T07:23:04.840Z,21.00
2022-08-10T07:25:21.456Z,21.00
2022-08-10T07:28:00.081Z,21.10
2022-08-10T07:30:32.873Z,21.30
2022-08-10T07:33:01.405Z,21.30
2022-08-10T07:35:37.071Z,21.20
2022-08-10T07:38:15.982Z,21.10
2022-08-10T07:40:43.857Z,21.10
2022-08-10T07:43:12.454Z,21.30
2022-08-10T07:45:40.337Z,21.50
2022-08-10T07:48:16.125Z,21.50
2022-08-10T07:50:45.015Z,21.40
2022-08-10T07:53:17.491Z,21.30
2022-08-10T07:56:05.316Z,21.30
2022-08-10T07:58:48.187Z,21.30
2022-08-10T08:01:22.024Z,21.30
2022-08-10T08:04:05.782Z,21.30
2022-08-10T08:06:39.191Z,21.30
2022-08-10T08:09:06.329Z,21.30
2022-08-10T08:11:33.714Z,21.40
2022-08-10T08:14:02.008Z,21.50
2022-08-10T08:16:30.933Z,21.50
2022-08-10T08:24:05.993Z,21.50
2022-08-10T08:24:37.644Z,21.50
2022-08-10T08:27:05.933Z,21.50
2022-08-10T08:29:35.902Z,21.50
2022-08-10T08:32:04.391Z,21.60
2022-08-10T08:34:34.378Z,21.70
2022-08-10T08:37:02.447Z,21.60
2022-08-10T08:39:31.775Z,21.70
2022-08-10T08:42:10.628Z,21.70
2022-08-10T08:45:15.668Z,21.80
2022-08-10T08:48:19.300Z,22.00
2022-08-10T08:51:10.731Z,22.00
2022-08-10T08:54:02.056Z,22.10
2022-08-10T08:57:08.546Z,22.20
2022-08-10T08:59:57.053Z,22.20
2022-08-10T09:02:54.890Z,22.40
2022-08-10T09:05:31.087Z,22.40
2022-08-10T09:08:36.174Z,22.30
2022-08-10T09:11:19.953Z,22.40
2022-08-10T09:14:08.540Z,22.70
2022-08-10T09:16:48.103Z,22.60
2022-08-10T09:19:46.963Z,22.50
2022-08-10T09:22:26.208Z,22.70
2022-08-10T09:25:37.445Z,22.70
2022-08-10T09:28:07.891Z,22.90
2022-08-10T09:31:10.844Z,23.00
2022-08-10T09:36:24.247Z,23.20
2022-08-10T09:36:54.708Z,23.00
2022-08-10T09:40:12.447Z,23.20
2022-08-10T09:43:23.597Z,23.20
2022-08-10T09:45:58.827Z,23.40
2022-08-10T09:48:38.487Z,23.60
2022-08-10T09:51:42.095Z,23.60
2022-08-10T09:54:43.883Z,23.60
2022-08-10T09:57:44.663Z,23.70
2022-08-10T10:00:19.071Z,24.00
2022-08-10T10:03:39.376Z,24.10
2022-08-10T10:06:33.027Z,24.10
2022-08-10T10:09:10.874Z,24.00
2022-08-10T10:11:46.587Z,24.00
2022-08-10T10:14:13.918Z,24.10
2022-08-10T10:17:10.587Z,24.20
2022-08-10T10:20:02.272Z,24.10
2022-08-10T10:22:43.129Z,24.40
2022-08-10T10:25:22.650Z,24.50
2022-08-10T10:28:10.314Z,24.50
2022-08-10T10:30:50.732Z,24.50
2022-08-10T10:33:33.090Z,24.70
2022-08-10T10:36:01.931Z,24.70
2022-08-10T10:38:38.102Z,24.80
2022-08-10T10:41:57.369Z,24.90
2022-08-10T10:44:43.575Z,25.10
2022-08-10T10:47:36.100Z,25.10
2022-08-10T10:50:20.990Z,25.50
2022-08-10T10:53:15.264Z,25.60
2022-08-10T10:56:15.071Z,25.80
2022-08-10T10:59:16.043Z,25.90
2022-08-10T11:02:36.517Z,26.20
2022-08-10T11:05:40.508Z,26.10
2022-08-10T11:08:28.759Z,26.30
2022-08-10T11:11:59.711Z,26.30
2022-08-10T11:14:29.686Z,26.40
2022-08-10T11:17:18.700Z,26.60
2022-08-10T11:20:15.563Z,26.70
2022-08-10T11:23:02.631Z,27.00
2022-08-10T11:25:39.774Z,27.20
2022-08-10T11:28:36.769Z,27.50
2022-08-10T11:31:16.281Z,27.70
2022-08-10T11:34:48.194Z,27.80
2022-08-10T11:37:02.715Z,27.70
2022-08-10T11:39:55.789Z,28.00
2022-08-10T11:42:36.111Z,27.90
2022-08-10T11:45:10.796Z,28.10
2022-08-10T11:47:49.940Z,28.10
2022-08-10T11:50:28.489Z,28.00
2022-08-10T11:53:17.422Z,28.20
2022-08-10T11:55:49.436Z,28.40
2022-08-10T11:58:36.418Z,28.60
2022-08-10T12:01:06.363Z,29.00
2022-08-10T12:03:36.285Z,29.10
2022-08-10T12:06:06.062Z,28.70
2022-08-10T12:10:03.551Z,28.70
2022-08-10T12:11:27.184Z,28.80
2022-08-10T12:14:20.186Z,29.00
2022-08-10T12:16:51.231Z,29.00
2022-08-10T12:19:24.258Z,29.50
2022-08-10T12:22:06.307Z,29.50
2022-08-10T12:24:48.813Z,29.50
2022-08-10T12:27:37.723Z,29.40
2022-08-10T12:30:07.803Z,29.20
2022-08-10T12:32:53.205Z,28.80
2022-08-10T12:35:37.912Z,29.30
2022-08-10T12:38:24.526Z,29.60
2022-08-10T12:41:00.758Z,29.50
2022-08-10T12:44:06.990Z,29.60
2022-08-10T12:46:53.012Z,29.50
2022-08-10T12:49:28.591Z,29.60
2022-08-10T12:52:34.861Z,30.30
2022-08-10T12:55:05.096Z,29.70
2022-08-10T12:57:35.768Z,30.20
2022-08-10T13:00:04.412Z,30.40
2022-08-10T13:02:36.150Z,30.40
2022-08-10T13:05:04.747Z,30.20
2022-08-10T13:08:25.093Z,29.90
2022-08-10T13:10:24.754Z,30.10
2022-08-10T13:12:54.661Z,30.40
2022-08-10T13:15:50.176Z,30.70
2022-08-10T13:18:23.509Z,31.20
2022-08-10T13:20:52.950Z,31.50
2022-08-10T13:23:27.221Z,30.90
2022-08-10T13:25:57.974Z,30.80
2022-08-10T13:28:55.113Z,30.90
2022-08-10T13:32:08.961Z,31.00
2022-08-10T13:34:42.333Z,31.80
2022-08-10T13:37:17.004Z,32.10
2022-08-10T13:39:59.441Z,32.20
2022-08-10T13:42:32.188Z,32.10
2022-08-10T13:45:15.268Z,32.00
2022-08-10T13:47:48.655Z,31.60
2022-08-10T13:50:33.740Z,32.10
2022-08-10T13:53:09.937Z,31.90
2022-08-10T13:55:54.021Z,32.00
2022-08-10T13:58:23.535Z,31.60
2022-08-10T14:00:50.676Z,32.30
2022-08-10T14:03:18.700Z,32.30
2022-08-10T14:05:58.188Z,32.20
2022-08-10T14:08:31.035Z,32.60
2022-08-10T14:11:11.832Z,31.70
2022-08-10T14:13:45.634Z,32.00
2022-08-10T14:16:13.481Z,32.30
2022-08-10T14:18:44.483Z,32.90
2022-08-10T14:21:11.841Z,32.50
2022-08-10T14:23:53.154Z,32.70
2022-08-10T14:26:24.997Z,33.20
2022-08-10T14:29:01.983Z,32.70
2022-08-10T14:31:34.741Z,32.70
2022-08-10T14:34:04.761Z,33.10
2022-08-10T14:36:50.823Z,33.40
2022-08-10T14:39:33.498Z,33.80
2022-08-10T14:42:16.757Z,33.10
2022-08-10T14:44:56.799Z,32.90
2022-08-10T14:47:53.510Z,33.10
2022-08-10T14:50:31.830Z,33.00
2022-08-10T14:53:15.535Z,32.90
2022-08-10T14:56:13.743Z,33.20
2022-08-10T14:59:09.894Z,34.00
2022-08-10T15:02:00.128Z,34.00
2022-08-10T15:04:28.759Z,33.40
2022-08-10T15:06:59.653Z,33.50
2022-08-10T15:09:59.172Z,33.60
2022-08-10T15:12:27.209Z,33.10
2022-08-10T15:14:58.329Z,33.40
2022-08-10T15:17:34.708Z,33.40
2022-08-10T15:20:13.579Z,33.50
2022-08-10T15:22:50.333Z,33.80
2022-08-10T15:25:24.809Z,33.60
2022-08-10T15:28:11.855Z,33.60
2022-08-10T15:30:58.643Z,33.30
2022-08-10T15:33:57.079Z,33.70
2022-08-10T15:37:36.704Z,33.80
2022-08-10T15:40:25.650Z,34.00
2022-08-10T15:42:55.137Z,33.50
2022-08-10T15:45:25.534Z,33.70
2022-08-10T15:48:02.992Z,33.60
2022-08-10T15:50:39.799Z,33.30
2022-08-10T15:53:28.203Z,33.10
2022-08-10T15:55:58.497Z,33.20
2022-08-10T15:58:52.702Z,33.30
2022-08-10T16:02:12.488Z,33.30
2022-08-10T16:05:09.723Z,33.30
2022-08-10T16:07:45.281Z,33.50
2022-08-10T16:10:25.346Z,33.20
2022-08-10T16:12:59.601Z,32.80
2022-08-10T16:15:28.865Z,32.90
2022-08-10T16:18:01.858Z,32.20
2022-08-10T16:20:53.407Z,32.40
2022-08-10T16:23:42.343Z,31.90
2022-08-10T16:26:15.592Z,31.50
2022-08-10T16:28:57.656Z,31.50
2022-08-10T16:31:27.773Z,30.70
2022-08-10T16:33:57.921Z,30.20
2022-08-10T16:36:49.312Z,29.70
2022-08-10T16:39:58.201Z,29.30
2022-08-10T16:42:24.545Z,29.10
2022-08-10T16:45:05.051Z,28.80
2022-08-10T16:47:37.254Z,28.70
2022-08-10T16:50:07.904Z,28.60
2022-08-10T16:52:35.939Z,28.50
2022-08-10T16:55:24.030Z,28.40
2022-08-10T16:57:54.294Z,28.20
2022-08-10T17:00:22.979Z,28.10
2022-08-10T17:02:53.541Z,28.00
2022-08-10T17:06:01.782Z,27.80
2022-08-10T17:08:12.828Z,27.80
2022-08-10T17:10:41.575Z,27.60
2022-08-10T17:13:10.656Z,27.70
2022-08-10T17:15:49.951Z,27.50
2022-08-10T17:18:27.471Z,27.50
2022-08-10T17:21:04.954Z,27.40
2022-08-10T17:23:35.148Z,27.30
2022-08-10T17:26:08.178Z,27.30
2022-08-10T17:28:41.058Z,27.20
2022-08-10T17:31:53.190Z,27.20
2022-08-10T17:34:17.464Z,27.00
2022-08-10T17:36:49.302Z,26.90
2022-08-10T17:39:20.677Z,26.90
2022-08-10T17:41:51.826Z,26.80
2022-08-10T17:44:19.184Z,26.80
2022-08-10T17:46:46.831Z,26.70
2022-08-10T17:49:18.863Z,26.70
2022-08-10T17:51:50.652Z,26.70
2022-08-10T17:54:47.037Z,26.60
2022-08-10T17:57:20.954Z,26.40
2022-08-10T17:59:50.735Z,26.40
2022-08-10T18:02:26.683Z,26.40
2022-08-10T18:04:58.670Z,26.30
2022-08-10T18:07:35.056Z,26.20
2022-08-10T18:10:04.127Z,26.20
2022-08-10T18:13:05.794Z,26.10
2022-08-10T18:15:38.082Z,26.10
2022-08-10T18:18:10.905Z,26.00
2022-08-10T18:20:39.751Z,26.00
2022-08-10T18:23:08.123Z,25.80
2022-08-10T18:25:38.392Z,25.70
2022-08-10T18:28:09.274Z,25.70
2022-08-10T18:30:46.032Z,25.70
2022-08-10T18:33:14.341Z,25.60
2022-08-10T18:35:44.001Z,25.50
2022-08-10T18:38:13.171Z,25.40
2022-08-10T18:40:44.084Z,25.30
2022-08-10T18:44:07.263Z,25.20
2022-08-10T18:46:06.694Z,25.20
2022-08-10T18:48:40.699Z,25.30
2022-08-10T18:51:09.081Z,25.20
2022-08-10T18:53:50.658Z,25.10
2022-08-10T18:56:17.278Z,25.00
2022-08-10T18:58:50.263Z,25.00
2022-08-10T19:01:17.628Z,25.00
2022-08-10T19:04:19.491Z,24.90
2022-08-10T19:06:51.938Z,24.70
2022-08-10T19:09:47.618Z,24.60
2022-08-10T19:12:30.194Z,24.60
2022-08-10T19:15:10.306Z,24.50
2022-08-10T19:18:12.416Z,24.50
2022-08-10T19:21:02.210Z,24.40
2022-08-10T19:23:41.262Z,24.30
2022-08-10T19:26:36.500Z,24.20
2022-08-10T19:29:04.791Z,24.20
2022-08-10T19:31:45.044Z,24.20
2022-08-10T19:35:00.884Z,24.20
2022-08-10T19:38:04.348Z,24.00
2022-08-10T19:40:44.318Z,23.90
2022-08-10T19:43:20.654Z,23.90
2022-08-10T19:46:27.880Z,23.80
2022-08-10T19:49:14.018Z,23.70
2022-08-10T19:52:19.503Z,23.60
2022-08-10T19:55:17.421Z,23.40
2022-08-10T19:57:58.388Z,23.30
2022-08-10T20:00:49.244Z,23.30
2022-08-10T20:03:15.902Z,23.10
2022-08-10T20:06:13.302Z,23.20
2022-08-10T20:08:53.351Z,23.20
2022-08-10T20:11:44.951Z,23.20
2022-08-10T20:14:50.515Z,23.10
2022-08-10T20:17:51.470Z,22.90
2022-08-10T20:20:36.065Z,22.80
2022-08-10T20:23:12.579Z,22.80
2022-08-10T20:25:42.388Z,22.70
2022-08-10T20:28:37.091Z,22.60
2022-08-10T20:31:08.466Z,22.60
2022-08-10T20:33:57.507Z,22.50
2022-08-10T20:36:30.552Z,22.40
2022-08-10T20:39:09.320Z,22.30
2022-08-10T20:41:52.623Z,22.20
2022-08-10T20:44:58.305Z,22.10
2022-08-10T20:47:57.603Z,22.10
2022-08-10T20:50:43.999Z,21.90
2022-08-10T20:53:14.627Z,21.90
2022-08-10T20:55:53.661Z,21.80
2022-08-10T20:59:00.225Z,21.70
2022-08-10T21:02:19.848Z,21.60
2022-08-10T21:05:10.208Z,21.60
2022-08-10T21:08:12.007Z,21.50
2022-08-10T21:11:00.128Z,21.40
2022-08-10T21:13:48.667Z,21.50
2022-08-10T21:16:20.331Z,21.50
2022-08-10T21:19:15.331Z,21.30
2022-08-10T21:22:01.317Z,21.30
2022-08-10T21:24:35.647Z,21.20
2022-08-10T21:27:22.465Z,21.20
2022-08-10T21:30:12.182Z,21.20
2022-08-10T21:32:45.578Z,21.20
2022-08-10T21:35:37.019Z,21.10
2022-08-10T21:38:24.038Z,21.10
2022-08-10T21:41:17.070Z,21.10
2022-08-10T21:44:23.406Z,21.10
2022-08-10T21:48:07.301Z,21.00
2022-08-10T21:50:53.019Z,20.90
2022-08-10T21:56:59.539Z,20.80
2022-08-10T22:00:05.612Z,20.70
2022-08-10T22:02:58.216Z,20.50
2022-08-10T22:05:47.772Z,20.40
2022-08-10T22:08:38.509Z,20.40
2022-08-10T22:11:28.085Z,20.60
2022-08-10T22:14:15.473Z,20.70
2022-08-10T22:18:10.693Z,20.90
2022-08-10T22:20:27.186Z,20.70
2022-08-10T22:23:27.382Z,20.90
2022-08-10T22:26:40.827Z,20.90
2022-08-10T22:29:42.362Z,21.00
2022-08-10T22:31:27.693Z,20.80
2022-08-10T22:32:43.788Z,20.80
2022-08-10T22:35:55.075Z,20.90
2022-08-10T22:38:59.006Z,21.00
2022-08-10T22:42:29.618Z,21.00
2022-08-10T22:45:36.363Z,20.90
2022-08-10T22:48:24.523Z,20.80
2022-08-10T22:50:57.891Z,20.90
2022-08-10T22:53:52.221Z,20.80
2022-08-10T22:56:39.290Z,20.90
2022-08-10T22:59:08.115Z,20.90
2022-08-10T23:02:08.519Z,20.80
2022-08-10T23:04:49.171Z,20.50
2022-08-10T23:07:18.730Z,20.10
2022-08-10T23:09:50.980Z,20.20
2022-08-10T23:12:24.278Z,20.30
2022-08-10T23:15:12.895Z,20.20
2022-08-10T23:18:02.158Z,20.20
2022-08-10T23:20:30.718Z,19.90
2022-08-10T23:23:07.426Z,19.80
2022-08-10T23:25:56.489Z,20.00
2022-08-10T23:28:58.150Z,20.20
2022-08-10T23:31:13.579Z,20.20
2022-08-10T23:33:42.444Z,20.10
2022-08-10T23:36:33.596Z,20.00
2022-08-10T23:39:25.891Z,20.20
2022-08-10T23:41:53.699Z,20.10
2022-08-10T23:44:22.359Z,20.10
2022-08-10T23:46:50.214Z,20.10
2022-08-10T23:49:18.602Z,19.90
2022-08-10T23:51:55.519Z,20.00
2022-08-10T23:54:24.998Z,19.90
2022-08-10T23:56:56.726Z,19.80
2022-08-10T23:59:31.625Z,20.00
